sensor_id;sensor_type;location;lat;lon;timestamp;temperature;humidity
23629;DHT22;11991;57.150;-2.134;2022-08-01T00:00:08;15.90;99.90
23629;DHT22;11991;57.150;-2.134;2022-08-01T00:02:37;15.90;99.90
23629;DHT22;11991;57.150;-2.134;2022-08-01T00:05:08;15.90;99.90
23629;DHT22;11991;57.150;-2.134;2022-08-01T00:07:37;15.80;99.90
23629;DHT22;11991;57.150;-2.134;2022-08-01T00:10:10;15.80;99.90
23629;DHT22;11991;57.150;-2.134;2022-08-01T00:12:39;15.90;99.90
23629;DHT22;11991;57.150;-2.134;2022-08-01T00:15:08;15.90;99.90
23629;DHT22;11991;57.150;-2.134;2022-08-01T00:17:36;15.90;99.90
23629;DHT22;11991;57.150;-2.134;2022-08-01T00:20:05;15.80;99.90
23629;DHT22;11991;57.150;-2.134;2022-08-01T00:22:33;15.80;99.90
23629;DHT22;11991;57.150;-2.134;2022-08-01T00:25:01;15.70;99.90
23629;DHT22;11991;57.150;-2.134;2022-08-01T00:27:28;15.70;99.90
23629;DHT22;11991;57.150;-2.134;2022-08-01T00:29:55;15.70;99.90
23629;DHT22;11991;57.150;-2.134;2022-08-01T00:32:41;15.70;99.90
23629;DHT22;11991;57.150;-2.134;2022-08-01T00:35:09;15.70;99.90
23629;DHT22;11991;57.150;-2.134;2022-08-01T00:37:36;15.70;99.90
23629;DHT22;11991;57.150;-2.134;2022-08-01T00:40:04;15.70;99.90
23629;DHT22;11991;57.150;-2.134;2022-08-01T00:42:31;15.70;99.90
23629;DHT22;11991;57.150;-2.134;2022-08-01T00:44:59;15.70;99.90
23629;DHT22;11991;57.150;-2.134;2022-08-01T00:47:26;15.60;99.90
23629;DHT22;11991;57.150;-2.134;2022-08-01T00:49:54;15.60;99.90
23629;DHT22;11991;57.150;-2.134;2022-08-01T00:52:21;15.60;99.90
23629;DHT22;11991;57.150;-2.134;2022-08-01T00:54:48;15.60;99.90
23629;DHT22;11991;57.150;-2.134;2022-08-01T00:57:16;15.60;99.90
23629;DHT22;11991;57.150;-2.134;2022-08-01T01:00:05;15.60;99.90
23629;DHT22;11991;57.150;-2.134;2022-08-01T01:02:33;15.60;99.90
23629;DHT22;11991;57.150;-2.134;2022-08-01T01:05:02;15.50;99.90
23629;DHT22;11991;57.150;-2.134;2022-08-01T01:10:31;15.50;99.90
23629;DHT22;11991;57.150;-2.134;2022-08-01T01:18:20;15.50;99.90
23629;DHT22;11991;57.150;-2.134;2022-08-01T01:21:01;15.50;99.90
23629;DHT22;11991;57.150;-2.134;2022-08-01T01:23:48;15.40;99.90
23629;DHT22;11991;57.150;-2.134;2022-08-01T01:29:30;15.50;99.90
23629;DHT22;11991;57.150;-2.134;2022-08-01T01:35:03;15.50;99.90
23629;DHT22;11991;57.150;-2.134;2022-08-01T01:37:33;15.50;99.90
23629;DHT22;11991;57.150;-2.134;2022-08-01T01:40:02;15.50;99.90
23629;DHT22;11991;57.150;-2.134;2022-08-01T01:42:31;15.50;99.90
23629;DHT22;11991;57.150;-2.134;2022-08-01T01:45:00;15.50;99.90
23629;DHT22;11991;57.150;-2.134;2022-08-01T01:47:29;15.50;99.90
23629;DHT22;11991;57.150;-2.134;2022-08-01T01:50:00;15.50;99.90
23629;DHT22;11991;57.150;-2.134;2022-08-01T01:52:29;15.40;99.90
23629;DHT22;11991;57.150;-2.134;2022-08-01T01:54:59;15.30;99.90
23629;DHT22;11991;57.150;-2.134;2022-08-01T01:57:29;15.30;99.90
23629;DHT22;11991;57.150;-2.134;2022-08-01T01:59:58;15.20;99.90
23629;DHT22;11991;57.150;-2.134;2022-08-01T02:02:27;15.10;99.90
23629;DHT22;11991;57.150;-2.134;2022-08-01T02:04:55;15.10;99.90
23629;DHT22;11991;57.150;-2.134;2022-08-01T02:07:26;15.10;99.90
23629;DHT22;11991;57.150;-2.134;2022-08-01T02:09:55;15.20;99.90
23629;DHT22;11991;57.150;-2.134;2022-08-01T02:12:24;15.10;99.90
23629;DHT22;11991;57.150;-2.134;2022-08-01T02:14:53;15.10;99.90
23629;DHT22;11991;57.150;-2.134;2022-08-01T02:17:23;15.10;99.90
23629;DHT22;11991;57.150;-2.134;2022-08-01T02:19:53;15.00;99.90
23629;DHT22;11991;57.150;-2.134;2022-08-01T02:22:33;15.10;99.90
23629;DHT22;11991;57.150;-2.134;2022-08-01T02:27:41;15.00;99.90
23629;DHT22;11991;57.150;-2.134;2022-08-01T02:30:12;15.10;99.90
23629;DHT22;11991;57.150;-2.134;2022-08-01T02:32:50;15.20;99.90
23629;DHT22;11991;57.150;-2.134;2022-08-01T02:35:22;15.20;99.90
23629;DHT22;11991;57.150;-2.134;2022-08-01T02:37:51;15.20;99.90
23629;DHT22;11991;57.150;-2.134;2022-08-01T02:40:20;15.20;99.90
23629;DHT22;11991;57.150;-2.134;2022-08-01T02:42:50;15.20;99.90
23629;DHT22;11991;57.150;-2.134;2022-08-01T02:45:23;15.20;99.90
23629;DHT22;11991;57.150;-2.134;2022-08-01T02:47:55;15.30;99.90
23629;DHT22;11991;57.150;-2.134;2022-08-01T02:50:26;15.30;99.90
23629;DHT22;11991;57.150;-2.134;2022-08-01T02:52:57;15.30;99.90
23629;DHT22;11991;57.150;-2.134;2022-08-01T02:55:25;15.30;99.90
23629;DHT22;11991;57.150;-2.134;2022-08-01T02:57:53;15.40;99.90
23629;DHT22;11991;57.150;-2.134;2022-08-01T03:00:28;15.40;99.90
23629;DHT22;11991;57.150;-2.134;2022-08-01T03:02:57;15.40;99.90
23629;DHT22;11991;57.150;-2.134;2022-08-01T03:05:26;15.50;99.90
23629;DHT22;11991;57.150;-2.134;2022-08-01T03:07:55;15.50;99.90
23629;DHT22;11991;57.150;-2.134;2022-08-01T03:10:31;15.50;99.90
23629;DHT22;11991;57.150;-2.134;2022-08-01T03:13:01;15.50;99.90
23629;DHT22;11991;57.150;-2.134;2022-08-01T03:15:32;15.50;99.90
23629;DHT22;11991;57.150;-2.134;2022-08-01T03:18:01;15.50;99.90
23629;DHT22;11991;57.150;-2.134;2022-08-01T03:20:30;15.60;99.90
23629;DHT22;11991;57.150;-2.134;2022-08-01T03:23:07;15.60;99.90
23629;DHT22;11991;57.150;-2.134;2022-08-01T03:25:38;15.60;99.90
23629;DHT22;11991;57.150;-2.134;2022-08-01T03:28:08;15.60;99.90
23629;DHT22;11991;57.150;-2.134;2022-08-01T03:30:37;15.70;99.90
23629;DHT22;11991;57.150;-2.134;2022-08-01T03:33:04;15.60;99.90
23629;DHT22;11991;57.150;-2.134;2022-08-01T03:35:39;15.70;99.90
23629;DHT22;11991;57.150;-2.134;2022-08-01T03:38:08;15.70;99.90
23629;DHT22;11991;57.150;-2.134;2022-08-01T03:40:53;15.70;99.90
23629;DHT22;11991;57.150;-2.134;2022-08-01T03:43:36;15.70;99.90
23629;DHT22;11991;57.150;-2.134;2022-08-01T03:46:07;15.70;99.90
23629;DHT22;11991;57.150;-2.134;2022-08-01T03:48:39;15.70;99.90
23629;DHT22;11991;57.150;-2.134;2022-08-01T03:51:09;15.70;99.90
23629;DHT22;11991;57.150;-2.134;2022-08-01T03:53:37;15.70;99.90
23629;DHT22;11991;57.150;-2.134;2022-08-01T03:56:09;15.70;99.90
23629;DHT22;11991;57.150;-2.134;2022-08-01T03:58:39;15.70;99.90
23629;DHT22;11991;57.150;-2.134;2022-08-01T04:01:07;15.70;99.90
23629;DHT22;11991;57.150;-2.134;2022-08-01T04:03:43;15.70;99.90
23629;DHT22;11991;57.150;-2.134;2022-08-01T04:06:10;15.70;99.90
23629;DHT22;11991;57.150;-2.134;2022-08-01T04:08:38;15.70;99.90
23629;DHT22;11991;57.150;-2.134;2022-08-01T04:11:08;15.70;99.90
23629;DHT22;11991;57.150;-2.134;2022-08-01T04:13:36;15.70;99.90
23629;DHT22;11991;57.150;-2.134;2022-08-01T04:16:04;15.70;99.90
23629;DHT22;11991;57.150;-2.134;2022-08-01T04:18:32;15.70;99.90
23629;DHT22;11991;57.150;-2.134;2022-08-01T04:20:59;15.70;99.90
23629;DHT22;11991;57.150;-2.134;2022-08-01T04:23:27;15.70;99.90
23629;DHT22;11991;57.150;-2.134;2022-08-01T04:26:00;15.70;99.90
23629;DHT22;11991;57.150;-2.134;2022-08-01T04:28:34;15.60;99.90
23629;DHT22;11991;57.150;-2.134;2022-08-01T04:31:06;15.60;99.90
23629;DHT22;11991;57.150;-2.134;2022-08-01T04:33:38;15.70;99.90
23629;DHT22;11991;57.150;-2.134;2022-08-01T04:36:06;15.70;99.90
23629;DHT22;11991;57.150;-2.134;2022-08-01T04:38:36;15.70;99.90
23629;DHT22;11991;57.150;-2.134;2022-08-01T04:41:06;15.60;99.90
23629;DHT22;11991;57.150;-2.134;2022-08-01T04:43:36;15.70;99.90
23629;DHT22;11991;57.150;-2.134;2022-08-01T04:46:05;15.70;99.90
23629;DHT22;11991;57.150;-2.134;2022-08-01T04:48:36;15.70;99.90
23629;DHT22;11991;57.150;-2.134;2022-08-01T04:51:04;15.80;99.90
23629;DHT22;11991;57.150;-2.134;2022-08-01T04:53:37;15.80;99.90
23629;DHT22;11991;57.150;-2.134;2022-08-01T04:56:05;15.80;99.90
23629;DHT22;11991;57.150;-2.134;2022-08-01T04:58:33;15.80;99.90
23629;DHT22;11991;57.150;-2.134;2022-08-01T05:01:00;15.80;99.90
23629;DHT22;11991;57.150;-2.134;2022-08-01T05:03:28;15.80;99.90
23629;DHT22;11991;57.150;-2.134;2022-08-01T05:05:55;15.80;99.90
23629;DHT22;11991;57.150;-2.134;2022-08-01T05:08:22;15.90;99.90
23629;DHT22;11991;57.150;-2.134;2022-08-01T05:10:49;15.90;99.90
23629;DHT22;11991;57.150;-2.134;2022-08-01T05:13:17;15.80;99.90
23629;DHT22;11991;57.150;-2.134;2022-08-01T05:15:44;15.80;99.90
23629;DHT22;11991;57.150;-2.134;2022-08-01T05:18:11;15.80;99.90
23629;DHT22;11991;57.150;-2.134;2022-08-01T05:20:40;15.80;99.90
23629;DHT22;11991;57.150;-2.134;2022-08-01T05:23:08;15.90;99.90
23629;DHT22;11991;57.150;-2.134;2022-08-01T05:25:55;15.90;99.90
23629;DHT22;11991;57.150;-2.134;2022-08-01T05:28:24;15.90;99.90
23629;DHT22;11991;57.150;-2.134;2022-08-01T05:30:52;15.90;99.90
23629;DHT22;11991;57.150;-2.134;2022-08-01T05:33:22;15.90;99.90
23629;DHT22;11991;57.150;-2.134;2022-08-01T05:35:49;15.90;99.90
23629;DHT22;11991;57.150;-2.134;2022-08-01T05:38:16;15.90;99.90
23629;DHT22;11991;57.150;-2.134;2022-08-01T05:40:44;15.90;99.90
23629;DHT22;11991;57.150;-2.134;2022-08-01T05:43:11;15.90;99.90
23629;DHT22;11991;57.150;-2.134;2022-08-01T05:45:38;15.90;99.90
23629;DHT22;11991;57.150;-2.134;2022-08-01T05:48:08;15.90;99.90
23629;DHT22;11991;57.150;-2.134;2022-08-01T05:50:35;15.90;99.90
23629;DHT22;11991;57.150;-2.134;2022-08-01T05:53:03;15.90;99.90
23629;DHT22;11991;57.150;-2.134;2022-08-01T05:55:30;15.90;99.90
23629;DHT22;11991;57.150;-2.134;2022-08-01T05:57:57;15.90;99.90
23629;DHT22;11991;57.150;-2.134;2022-08-01T06:00:24;15.90;99.90
23629;DHT22;11991;57.150;-2.134;2022-08-01T06:02:52;16.00;99.90
23629;DHT22;11991;57.150;-2.134;2022-08-01T06:05:19;16.00;99.90
23629;DHT22;11991;57.150;-2.134;2022-08-01T06:07:46;15.90;99.90
23629;DHT22;11991;57.150;-2.134;2022-08-01T06:10:14;15.90;99.90
23629;DHT22;11991;57.150;-2.134;2022-08-01T06:12:41;15.90;99.90
23629;DHT22;11991;57.150;-2.134;2022-08-01T06:15:10;16.00;99.90
23629;DHT22;11991;57.150;-2.134;2022-08-01T06:17:37;16.00;99.90
23629;DHT22;11991;57.150;-2.134;2022-08-01T06:20:06;16.00;99.90
23629;DHT22;11991;57.150;-2.134;2022-08-01T06:22:34;16.00;99.90
23629;DHT22;11991;57.150;-2.134;2022-08-01T06:25:01;16.00;99.90
23629;DHT22;11991;57.150;-2.134;2022-08-01T06:27:28;16.00;99.90
23629;DHT22;11991;57.150;-2.134;2022-08-01T06:29:56;16.10;99.90
23629;DHT22;11991;57.150;-2.134;2022-08-01T06:32:24;16.10;99.90
23629;DHT22;11991;57.150;-2.134;2022-08-01T06:34:54;16.10;99.90
23629;DHT22;11991;57.150;-2.134;2022-08-01T06:37:22;16.10;99.90
23629;DHT22;11991;57.150;-2.134;2022-08-01T06:39:50;16.10;99.90
23629;DHT22;11991;57.150;-2.134;2022-08-01T06:42:17;16.10;99.90
23629;DHT22;11991;57.150;-2.134;2022-08-01T06:44:45;16.20;99.90
23629;DHT22;11991;57.150;-2.134;2022-08-01T06:47:13;16.10;99.90
23629;DHT22;11991;57.150;-2.134;2022-08-01T06:49:40;16.10;99.90
23629;DHT22;11991;57.150;-2.134;2022-08-01T06:52:07;16.20;99.90
23629;DHT22;11991;57.150;-2.134;2022-08-01T06:54:35;16.30;99.90
23629;DHT22;11991;57.150;-2.134;2022-08-01T06:57:06;16.30;99.90
23629;DHT22;11991;57.150;-2.134;2022-08-01T06:59:33;16.30;99.90
23629;DHT22;11991;57.150;-2.134;2022-08-01T07:02:00;16.30;99.90
23629;DHT22;11991;57.150;-2.134;2022-08-01T07:04:28;16.30;99.90
23629;DHT22;11991;57.150;-2.134;2022-08-01T07:06:56;16.30;99.90
23629;DHT22;11991;57.150;-2.134;2022-08-01T07:09:24;16.30;99.90
23629;DHT22;11991;57.150;-2.134;2022-08-01T07:11:51;16.40;99.90
23629;DHT22;11991;57.150;-2.134;2022-08-01T07:14:20;16.40;99.90
23629;DHT22;11991;57.150;-2.134;2022-08-01T07:16:47;16.40;99.90
23629;DHT22;11991;57.150;-2.134;2022-08-01T07:19:15;16.40;99.90
23629;DHT22;11991;57.150;-2.134;2022-08-01T07:21:42;16.40;99.90
23629;DHT22;11991;57.150;-2.134;2022-08-01T07:24:13;16.40;99.90
23629;DHT22;11991;57.150;-2.134;2022-08-01T07:26:42;16.50;99.90
23629;DHT22;11991;57.150;-2.134;2022-08-01T07:29:22;16.60;99.90
23629;DHT22;11991;57.150;-2.134;2022-08-01T07:31:54;16.70;99.90
23629;DHT22;11991;57.150;-2.134;2022-08-01T07:34:23;16.80;99.90
23629;DHT22;11991;57.150;-2.134;2022-08-01T07:36:51;16.80;99.90
23629;DHT22;11991;57.150;-2.134;2022-08-01T07:39:19;16.80;99.90
23629;DHT22;11991;57.150;-2.134;2022-08-01T07:41:46;16.60;99.90
23629;DHT22;11991;57.150;-2.134;2022-08-01T07:44:34;16.50;99.90
23629;DHT22;11991;57.150;-2.134;2022-08-01T07:47:02;16.50;99.90
23629;DHT22;11991;57.150;-2.134;2022-08-01T07:49:30;16.50;99.90
23629;DHT22;11991;57.150;-2.134;2022-08-01T07:52:05;16.50;99.90
23629;DHT22;11991;57.150;-2.134;2022-08-01T07:54:32;16.60;99.90
23629;DHT22;11991;57.150;-2.134;2022-08-01T07:57:02;16.70;99.90
23629;DHT22;11991;57.150;-2.134;2022-08-01T07:59:30;16.70;99.90
23629;DHT22;11991;57.150;-2.134;2022-08-01T08:01:57;16.70;99.90
23629;DHT22;11991;57.150;-2.134;2022-08-01T08:04:26;16.70;99.90
23629;DHT22;11991;57.150;-2.134;2022-08-01T08:06:54;16.70;99.90
23629;DHT22;11991;57.150;-2.134;2022-08-01T08:09:22;16.70;99.90
23629;DHT22;11991;57.150;-2.134;2022-08-01T08:11:49;16.70;99.90
23629;DHT22;11991;57.150;-2.134;2022-08-01T08:14:17;16.70;99.90
23629;DHT22;11991;57.150;-2.134;2022-08-01T08:16:45;16.60;99.90
23629;DHT22;11991;57.150;-2.134;2022-08-01T08:19:12;16.70;99.90
23629;DHT22;11991;57.150;-2.134;2022-08-01T08:21:40;16.70;99.90
23629;DHT22;11991;57.150;-2.134;2022-08-01T08:24:11;16.70;99.90
23629;DHT22;11991;57.150;-2.134;2022-08-01T08:26:55;16.90;99.90
23629;DHT22;11991;57.150;-2.134;2022-08-01T08:29:24;17.00;99.90
23629;DHT22;11991;57.150;-2.134;2022-08-01T08:35:10;17.30;99.90
23629;DHT22;11991;57.150;-2.134;2022-08-01T08:37:42;17.40;99.90
23629;DHT22;11991;57.150;-2.134;2022-08-01T08:40:15;17.40;99.90
23629;DHT22;11991;57.150;-2.134;2022-08-01T08:42:44;17.50;99.90
23629;DHT22;11991;57.150;-2.134;2022-08-01T08:45:13;17.40;99.90
23629;DHT22;11991;57.150;-2.134;2022-08-01T08:47:41;17.50;99.90
23629;DHT22;11991;57.150;-2.134;2022-08-01T08:50:20;17.50;99.90
23629;DHT22;11991;57.150;-2.134;2022-08-01T08:52:55;17.60;99.90
23629;DHT22;11991;57.150;-2.134;2022-08-01T08:55:24;17.70;99.90
23629;DHT22;11991;57.150;-2.134;2022-08-01T08:57:52;17.80;99.90
23629;DHT22;11991;57.150;-2.134;2022-08-01T09:00:20;17.90;99.90
23629;DHT22;11991;57.150;-2.134;2022-08-01T09:02:48;17.90;99.90
23629;DHT22;11991;57.150;-2.134;2022-08-01T09:05:16;18.00;99.90
23629;DHT22;11991;57.150;-2.134;2022-08-01T09:07:45;17.90;99.90
23629;DHT22;11991;57.150;-2.134;2022-08-01T09:10:13;18.00;99.90
23629;DHT22;11991;57.150;-2.134;2022-08-01T09:13:08;18.10;99.90
23629;DHT22;11991;57.150;-2.134;2022-08-01T09:15:50;18.20;99.90
23629;DHT22;11991;57.150;-2.134;2022-08-01T09:21:13;18.40;99.90
23629;DHT22;11991;57.150;-2.134;2022-08-01T09:23:45;18.40;99.90
23629;DHT22;11991;57.150;-2.134;2022-08-01T09:26:29;18.40;99.90
23629;DHT22;11991;57.150;-2.134;2022-08-01T09:28:58;18.40;99.90
23629;DHT22;11991;57.150;-2.134;2022-08-01T09:31:28;18.50;99.90
23629;DHT22;11991;57.150;-2.134;2022-08-01T09:34:04;18.50;99.90
23629;DHT22;11991;57.150;-2.134;2022-08-01T09:36:47;18.50;99.90
23629;DHT22;11991;57.150;-2.134;2022-08-01T09:39:25;18.50;99.90
23629;DHT22;11991;57.150;-2.134;2022-08-01T09:41:59;18.60;99.90
23629;DHT22;11991;57.150;-2.134;2022-08-01T09:47:10;18.60;99.90
23629;DHT22;11991;57.150;-2.134;2022-08-01T09:49:42;18.60;99.90
23629;DHT22;11991;57.150;-2.134;2022-08-01T09:52:23;18.60;99.90
23629;DHT22;11991;57.150;-2.134;2022-08-01T09:55:03;18.60;99.90
23629;DHT22;11991;57.150;-2.134;2022-08-01T09:57:31;18.50;99.90
23629;DHT22;11991;57.150;-2.134;2022-08-01T10:00:03;18.50;99.90
23629;DHT22;11991;57.150;-2.134;2022-08-01T10:06:45;18.80;99.90
23629;DHT22;11991;57.150;-2.134;2022-08-01T10:09:27;18.90;99.90
23629;DHT22;11991;57.150;-2.134;2022-08-01T10:12:08;19.00;99.90
23629;DHT22;11991;57.150;-2.134;2022-08-01T10:14:43;19.00;99.90
23629;DHT22;11991;57.150;-2.134;2022-08-01T10:17:15;19.00;99.90
23629;DHT22;11991;57.150;-2.134;2022-08-01T10:19:47;19.10;99.90
23629;DHT22;11991;57.150;-2.134;2022-08-01T10:22:18;19.10;99.90
23629;DHT22;11991;57.150;-2.134;2022-08-01T10:25:18;19.10;99.90
23629;DHT22;11991;57.150;-2.134;2022-08-01T10:28:19;19.10;99.90
23629;DHT22;11991;57.150;-2.134;2022-08-01T10:30:50;19.10;99.90
23629;DHT22;11991;57.150;-2.134;2022-08-01T10:33:22;19.00;99.90
23629;DHT22;11991;57.150;-2.134;2022-08-01T10:36:10;19.00;99.90
23629;DHT22;11991;57.150;-2.134;2022-08-01T10:38:37;19.00;99.90
23629;DHT22;11991;57.150;-2.134;2022-08-01T10:41:05;18.90;99.90
23629;DHT22;11991;57.150;-2.134;2022-08-01T10:43:35;18.90;99.90
23629;DHT22;11991;57.150;-2.134;2022-08-01T10:46:04;19.00;99.90
23629;DHT22;11991;57.150;-2.134;2022-08-01T10:48:50;19.00;99.90
23629;DHT22;11991;57.150;-2.134;2022-08-01T10:51:20;19.00;99.90
23629;DHT22;11991;57.150;-2.134;2022-08-01T10:54:10;19.10;99.90
23629;DHT22;11991;57.150;-2.134;2022-08-01T10:56:47;19.10;99.90
23629;DHT22;11991;57.150;-2.134;2022-08-01T10:59:24;19.20;99.90
23629;DHT22;11991;57.150;-2.134;2022-08-01T11:02:11;19.20;99.90
23629;DHT22;11991;57.150;-2.134;2022-08-01T11:04:56;19.30;99.90
23629;DHT22;11991;57.150;-2.134;2022-08-01T11:07:48;19.30;99.90
23629;DHT22;11991;57.150;-2.134;2022-08-01T11:12:50;19.20;99.90
23629;DHT22;11991;57.150;-2.134;2022-08-01T11:15:20;19.20;99.90
23629;DHT22;11991;57.150;-2.134;2022-08-01T11:17:58;19.10;99.90
23629;DHT22;11991;57.150;-2.134;2022-08-01T11:20:32;19.20;99.90
23629;DHT22;11991;57.150;-2.134;2022-08-01T11:28:25;19.30;99.90
23629;DHT22;11991;57.150;-2.134;2022-08-01T11:41:30;19.00;99.90
23629;DHT22;11991;57.150;-2.134;2022-08-01T11:46:54;19.00;99.90
23629;DHT22;11991;57.150;-2.134;2022-08-01T11:49:33;19.10;99.90
23629;DHT22;11991;57.150;-2.134;2022-08-01T11:52:11;19.10;99.90
23629;DHT22;11991;57.150;-2.134;2022-08-01T11:54:42;19.20;99.90
23629;DHT22;11991;57.150;-2.134;2022-08-01T11:57:18;19.10;99.90
23629;DHT22;11991;57.150;-2.134;2022-08-01T12:03:31;19.00;99.90
23629;DHT22;11991;57.150;-2.134;2022-08-01T12:06:00;19.00;99.90
23629;DHT22;11991;57.150;-2.134;2022-08-01T12:08:31;19.00;99.90
23629;DHT22;11991;57.150;-2.134;2022-08-01T12:11:04;19.00;99.90
23629;DHT22;11991;57.150;-2.134;2022-08-01T12:13:42;18.90;99.90
23629;DHT22;11991;57.150;-2.134;2022-08-01T12:16:12;18.90;99.90
23629;DHT22;11991;57.150;-2.134;2022-08-01T12:18:43;18.90;99.90
23629;DHT22;11991;57.150;-2.134;2022-08-01T12:21:11;18.80;99.90
23629;DHT22;11991;57.150;-2.134;2022-08-01T12:23:38;18.90;99.90
23629;DHT22;11991;57.150;-2.134;2022-08-01T12:26:05;18.90;99.90
23629;DHT22;11991;57.150;-2.134;2022-08-01T12:28:39;19.00;99.90
23629;DHT22;11991;57.150;-2.134;2022-08-01T12:31:07;19.10;99.90
23629;DHT22;11991;57.150;-2.134;2022-08-01T12:33:34;19.10;99.90
23629;DHT22;11991;57.150;-2.134;2022-08-01T12:36:02;19.10;99.90
23629;DHT22;11991;57.150;-2.134;2022-08-01T12:38:30;19.20;99.90
23629;DHT22;11991;57.150;-2.134;2022-08-01T12:40:59;19.20;99.90
23629;DHT22;11991;57.150;-2.134;2022-08-01T12:43:31;19.20;99.90
23629;DHT22;11991;57.150;-2.134;2022-08-01T12:45:59;19.30;99.90
23629;DHT22;11991;57.150;-2.134;2022-08-01T12:48:27;19.20;99.90
23629;DHT22;11991;57.150;-2.134;2022-08-01T12:50:58;19.20;99.90
23629;DHT22;11991;57.150;-2.134;2022-08-01T12:53:28;19.10;99.90
23629;DHT22;11991;57.150;-2.134;2022-08-01T12:56:08;19.10;99.90
23629;DHT22;11991;57.150;-2.134;2022-08-01T12:58:38;19.00;99.90
23629;DHT22;11991;57.150;-2.134;2022-08-01T13:01:07;19.10;99.90
23629;DHT22;11991;57.150;-2.134;2022-08-01T13:03:36;19.10;99.90
23629;DHT22;11991;57.150;-2.134;2022-08-01T13:06:13;19.20;99.90
23629;DHT22;11991;57.150;-2.134;2022-08-01T13:08:43;19.40;99.90
23629;DHT22;11991;57.150;-2.134;2022-08-01T13:11:15;19.40;99.90
23629;DHT22;11991;57.150;-2.134;2022-08-01T13:13:48;19.40;99.90
23629;DHT22;11991;57.150;-2.134;2022-08-01T13:16:26;19.50;99.90
23629;DHT22;11991;57.150;-2.134;2022-08-01T13:19:13;19.60;99.90
23629;DHT22;11991;57.150;-2.134;2022-08-01T13:21:54;19.70;99.90
23629;DHT22;11991;57.150;-2.134;2022-08-01T13:24:27;19.80;99.90
23629;DHT22;11991;57.150;-2.134;2022-08-01T13:26:57;19.80;99.90
23629;DHT22;11991;57.150;-2.134;2022-08-01T13:29:35;19.90;99.90
23629;DHT22;11991;57.150;-2.134;2022-08-01T13:32:19;19.90;99.90
23629;DHT22;11991;57.150;-2.134;2022-08-01T13:35:06;20.00;99.90
23629;DHT22;11991;57.150;-2.134;2022-08-01T13:37:36;20.00;99.90
23629;DHT22;11991;57.150;-2.134;2022-08-01T13:40:06;20.00;99.90
23629;DHT22;11991;57.150;-2.134;2022-08-01T13:42:33;20.10;99.90
23629;DHT22;11991;57.150;-2.134;2022-08-01T13:45:02;20.10;99.90
23629;DHT22;11991;57.150;-2.134;2022-08-01T13:47:40;20.10;99.90
23629;DHT22;11991;57.150;-2.134;2022-08-01T13:50:28;20.10;99.90
23629;DHT22;11991;57.150;-2.134;2022-08-01T13:52:55;20.10;99.90
23629;DHT22;11991;57.150;-2.134;2022-08-01T13:55:23;20.10;99.90
23629;DHT22;11991;57.150;-2.134;2022-08-01T13:57:50;20.20;99.90
23629;DHT22;11991;57.150;-2.134;2022-08-01T14:00:17;20.30;99.90
23629;DHT22;11991;57.150;-2.134;2022-08-01T14:02:45;20.20;99.90
23629;DHT22;11991;57.150;-2.134;2022-08-01T14:05:12;20.30;99.90
23629;DHT22;11991;57.150;-2.134;2022-08-01T14:07:39;20.30;99.90
23629;DHT22;11991;57.150;-2.134;2022-08-01T14:10:07;20.40;99.90
23629;DHT22;11991;57.150;-2.134;2022-08-01T14:12:47;20.40;99.90
23629;DHT22;11991;57.150;-2.134;2022-08-01T14:15:15;20.50;99.90
23629;DHT22;11991;57.150;-2.134;2022-08-01T14:18:04;20.60;99.90
23629;DHT22;11991;57.150;-2.134;2022-08-01T14:20:33;20.60;99.90
23629;DHT22;11991;57.150;-2.134;2022-08-01T14:23:01;20.60;99.90
23629;DHT22;11991;57.150;-2.134;2022-08-01T14:25:31;20.60;99.90
23629;DHT22;11991;57.150;-2.134;2022-08-01T14:28:22;20.60;99.90
23629;DHT22;11991;57.150;-2.134;2022-08-01T14:30:51;20.60;99.90
23629;DHT22;11991;57.150;-2.134;2022-08-01T14:33:18;20.60;99.90
23629;DHT22;11991;57.150;-2.134;2022-08-01T14:35:46;20.60;99.90
23629;DHT22;11991;57.150;-2.134;2022-08-01T14:38:33;20.60;99.90
23629;DHT22;11991;57.150;-2.134;2022-08-01T14:41:02;20.70;99.90
23629;DHT22;11991;57.150;-2.134;2022-08-01T14:43:32;20.70;99.90
23629;DHT22;11991;57.150;-2.134;2022-08-01T14:46:03;20.80;99.90
23629;DHT22;11991;57.150;-2.134;2022-08-01T14:48:32;20.80;99.90
23629;DHT22;11991;57.150;-2.134;2022-08-01T14:50:59;20.80;99.90
23629;DHT22;11991;57.150;-2.134;2022-08-01T14:53:30;20.90;99.90
23629;DHT22;11991;57.150;-2.134;2022-08-01T14:56:03;20.90;99.90
23629;DHT22;11991;57.150;-2.134;2022-08-01T14:58:30;20.90;99.90
23629;DHT22;11991;57.150;-2.134;2022-08-01T15:00:58;20.90;99.90
23629;DHT22;11991;57.150;-2.134;2022-08-01T15:03:26;20.90;99.90
23629;DHT22;11991;57.150;-2.134;2022-08-01T15:05:53;21.00;99.90
23629;DHT22;11991;57.150;-2.134;2022-08-01T15:08:20;21.10;99.90
23629;DHT22;11991;57.150;-2.134;2022-08-01T15:10:48;21.20;99.90
23629;DHT22;11991;57.150;-2.134;2022-08-01T15:13:15;21.30;99.90
23629;DHT22;11991;57.150;-2.134;2022-08-01T15:15:42;21.30;99.90
23629;DHT22;11991;57.150;-2.134;2022-08-01T15:18:09;21.40;99.90
23629;DHT22;11991;57.150;-2.134;2022-08-01T15:20:37;21.40;99.90
23629;DHT22;11991;57.150;-2.134;2022-08-01T15:23:05;21.40;99.90
23629;DHT22;11991;57.150;-2.134;2022-08-01T15:25:32;21.40;99.90
23629;DHT22;11991;57.150;-2.134;2022-08-01T15:28:11;21.40;99.90
23629;DHT22;11991;57.150;-2.134;2022-08-01T15:30:39;21.40;99.90
23629;DHT22;11991;57.150;-2.134;2022-08-01T15:33:07;21.40;99.90
23629;DHT22;11991;57.150;-2.134;2022-08-01T15:35:34;21.40;99.90
23629;DHT22;11991;57.150;-2.134;2022-08-01T15:38:04;21.40;99.90
23629;DHT22;11991;57.150;-2.134;2022-08-01T15:40:34;21.40;99.90
23629;DHT22;11991;57.150;-2.134;2022-08-01T15:43:17;21.50;99.90
23629;DHT22;11991;57.150;-2.134;2022-08-01T15:45:44;21.40;99.90
23629;DHT22;11991;57.150;-2.134;2022-08-01T15:48:17;21.40;99.90
23629;DHT22;11991;57.150;-2.134;2022-08-01T15:50:45;21.40;99.90
23629;DHT22;11991;57.150;-2.134;2022-08-01T15:53:12;21.30;99.90
23629;DHT22;11991;57.150;-2.134;2022-08-01T15:55:46;21.20;99.90
23629;DHT22;11991;57.150;-2.134;2022-08-01T15:58:18;21.20;99.90
23629;DHT22;11991;57.150;-2.134;2022-08-01T16:00:46;21.20;99.90
23629;DHT22;11991;57.150;-2.134;2022-08-01T16:03:13;21.10;99.90
23629;DHT22;11991;57.150;-2.134;2022-08-01T16:05:40;21.10;99.90
23629;DHT22;11991;57.150;-2.134;2022-08-01T16:08:11;21.10;99.90
23629;DHT22;11991;57.150;-2.134;2022-08-01T16:10:39;21.10;99.90
23629;DHT22;11991;57.150;-2.134;2022-08-01T16:13:07;21.10;99.90
23629;DHT22;11991;57.150;-2.134;2022-08-01T16:15:36;21.00;99.90
23629;DHT22;11991;57.150;-2.134;2022-08-01T16:18:09;20.90;99.90
23629;DHT22;11991;57.150;-2.134;2022-08-01T16:20:39;20.90;99.90
23629;DHT22;11991;57.150;-2.134;2022-08-01T16:23:13;20.80;99.90
23629;DHT22;11991;57.150;-2.134;2022-08-01T16:25:41;20.80;99.90
23629;DHT22;11991;57.150;-2.134;2022-08-01T16:28:09;20.80;99.90
23629;DHT22;11991;57.150;-2.134;2022-08-01T16:30:37;20.80;99.90
23629;DHT22;11991;57.150;-2.134;2022-08-01T16:33:25;20.80;99.90